createdAt,value
2018-02-20T00:02:24.710Z,27.77
2018-02-20T00:04:52.653Z,31.25
2018-02-20T00:07:20.548Z,30.65
2018-02-20T00:09:48.492Z,32.17
2018-02-20T00:12:16.379Z,30.02
2018-02-20T00:14:44.552Z,28.45
2018-02-20T00:17:13.138Z,30.17
2018-02-20T00:19:41.072Z,31.65
2018-02-20T00:22:09.109Z,29.65
2018-02-20T00:24:37.060Z,29.92
2018-02-20T00:27:05.722Z,30.23
2018-02-20T00:29:33.683Z,28.27
2018-02-20T00:32:01.691Z,29.60
2018-02-20T00:34:31.768Z,27.80
2018-02-20T00:36:59.655Z,29.83
2018-02-20T00:39:27.649Z,25.88
2018-02-20T00:41:57.347Z,36.22
2018-02-20T00:44:25.283Z,33.47
2018-02-20T00:46:53.237Z,30.77
2018-02-20T00:49:21.965Z,35.50
2018-02-20T00:51:49.861Z,34.55
2018-02-20T00:54:19.548Z,30.30
2018-02-20T00:56:47.446Z,35.33
2018-02-20T00:59:15.393Z,33.90
2018-02-20T01:01:43.284Z,36.55
2018-02-20T01:04:11.386Z,29.70
2018-02-20T01:06:39.272Z,34.25
2018-02-20T01:09:07.222Z,29.30
2018-02-20T01:11:35.116Z,33.42
2018-02-20T01:14:03.077Z,31.73
2018-02-20T01:16:31.029Z,31.87
2018-02-20T01:18:58.977Z,32.58
2018-02-20T01:21:26.868Z,34.55
2018-02-20T01:23:55.595Z,36.63
2018-02-20T01:26:23.502Z,33.25
2018-02-20T01:28:51.442Z,33.38
2018-02-20T01:31:19.329Z,34.30
2018-02-20T01:33:47.340Z,35.95
2018-02-20T01:36:15.245Z,35.05
2018-02-20T01:38:43.195Z,29.25
2018-02-20T01:41:11.094Z,30.30
2018-02-20T01:43:39.065Z,31.23
2018-02-20T01:46:07.732Z,35.22
2018-02-20T01:48:35.673Z,31.02
2018-02-20T01:51:08.709Z,33.58
2018-02-20T01:53:36.665Z,34.65
2018-02-20T01:56:04.565Z,34.15
2018-02-20T01:58:33.290Z,28.40
2018-02-20T02:01:01.195Z,38.20
2018-02-20T02:03:30.432Z,35.67
2018-02-20T02:05:58.329Z,30.98
2018-02-20T02:08:26.274Z,27.65
2018-02-20T02:10:54.254Z,29.45
2018-02-20T02:13:22.153Z,31.55
2018-02-20T02:15:50.127Z,30.85
2018-02-20T02:18:18.793Z,29.35
2018-02-20T02:20:47.561Z,28.80
2018-02-20T02:23:15.460Z,30.67
2018-02-20T02:25:43.409Z,33.88
2018-02-20T02:28:11.324Z,30.30
2018-02-20T02:30:42.898Z,30.12
2018-02-20T02:33:14.099Z,26.85
2018-02-20T02:35:47.575Z,27.27
2018-02-20T02:38:18.028Z,31.90
2018-02-20T02:40:49.782Z,31.15
2018-02-20T02:43:21.352Z,29.67
2018-02-20T02:45:52.813Z,29.15
2018-02-20T02:48:24.917Z,29.15
2018-02-20T02:50:56.072Z,25.73
2018-02-20T02:53:27.322Z,31.95
2018-02-20T02:55:58.305Z,28.35
2018-02-20T02:58:29.120Z,28.48
2018-02-20T03:01:00.078Z,30.35
2018-02-20T03:03:30.896Z,29.37
2018-02-20T03:06:01.159Z,28.73
2018-02-20T03:08:29.128Z,30.30
2018-02-20T03:10:57.095Z,29.42
2018-02-20T03:13:25.073Z,30.12
2018-02-20T03:15:53.027Z,30.37
2018-02-20T03:18:20.933Z,35.47
2018-02-20T03:20:49.661Z,29.30
2018-02-20T03:23:17.562Z,31.90
2018-02-20T03:25:45.529Z,30.17
2018-02-20T03:28:13.454Z,28.30
2018-02-20T03:30:41.406Z,31.25
2018-02-20T03:33:09.327Z,28.58
2018-02-20T03:35:37.269Z,27.90
2018-02-20T03:38:05.196Z,32.90
2018-02-20T03:40:33.918Z,29.67
2018-02-20T03:43:01.957Z,26.40
2018-02-20T03:45:30.686Z,27.73
2018-02-20T03:47:58.588Z,36.90
2018-02-20T03:50:26.544Z,29.45
2018-02-20T03:52:54.454Z,29.70
2018-02-20T03:55:22.410Z,28.05
2018-02-20T03:57:50.317Z,28.85
2018-02-20T04:00:19.266Z,33.47
2018-02-20T04:02:47.170Z,35.75
2018-02-20T04:05:15.122Z,29.70
2018-02-20T04:07:43.030Z,34.42
2018-02-20T04:10:10.982Z,33.83
2018-02-20T04:12:40.059Z,30.05
2018-02-20T04:15:08.834Z,28.00
2018-02-20T04:17:36.746Z,30.12
2018-02-20T04:20:04.753Z,28.60
2018-02-20T04:22:32.654Z,32.03
2018-02-20T04:25:01.373Z,31.70
2018-02-20T04:27:29.288Z,23.77
2018-02-20T04:29:57.243Z,35.72
2018-02-20T04:32:25.138Z,27.60
2018-02-20T04:34:53.068Z,30.77
2018-02-20T04:37:20.980Z,28.67
2018-02-20T04:39:48.923Z,28.83
2018-02-20T04:42:16.901Z,26.37
2018-02-20T04:44:44.834Z,26.98
2018-02-20T04:47:12.718Z,35.55
2018-02-20T04:49:40.665Z,28.73
2018-02-20T04:52:08.551Z,32.40
2018-02-20T04:54:36.488Z,30.50
2018-02-20T04:57:04.376Z,30.37
2018-02-20T04:59:32.313Z,38.50
2018-02-20T05:02:00.203Z,27.37
2018-02-20T05:04:28.396Z,28.58
2018-02-20T05:06:56.286Z,30.33
2018-02-20T05:09:24.228Z,39.70
2018-02-20T05:11:52.116Z,39.40
2018-02-20T05:14:20.055Z,38.60
2018-02-20T05:16:47.936Z,46.78
2018-02-20T05:19:15.866Z,37.95
2018-02-20T05:21:44.609Z,43.95
2018-02-20T05:24:12.493Z,41.97
2018-02-20T05:26:40.420Z,38.13
2018-02-20T05:29:08.351Z,36.60
2018-02-20T05:31:36.306Z,106.12
2018-02-20T05:34:04.289Z,152.02
2018-02-20T05:36:32.233Z,73.65
2018-02-20T05:39:01.782Z,41.63
2018-02-20T05:41:34.102Z,30.65
2018-02-20T05:44:05.520Z,44.03
2018-02-20T05:46:37.304Z,43.63
2018-02-20T05:49:08.477Z,35.13
2018-02-20T05:51:39.874Z,38.65
2018-02-20T05:54:11.494Z,42.17
2018-02-20T05:56:43.024Z,44.75
2018-02-20T05:59:14.464Z,51.30
2018-02-20T06:01:47.594Z,41.92
2018-02-20T06:04:18.699Z,41.00
2018-02-20T06:06:46.717Z,39.97
2018-02-20T06:09:14.616Z,41.40
2018-02-20T06:11:42.563Z,34.75
2018-02-20T06:14:10.441Z,42.38
2018-02-20T06:16:39.140Z,42.38
2018-02-20T06:19:07.032Z,40.90
2018-02-20T06:21:34.965Z,35.95
2018-02-20T06:24:07.007Z,40.10
2018-02-20T06:26:34.953Z,39.80
2018-02-20T06:29:02.845Z,34.65
2018-02-20T06:31:30.786Z,36.17
2018-02-20T06:33:58.677Z,38.45
2018-02-20T06:36:26.638Z,35.58
2018-02-20T06:38:54.530Z,34.65
2018-02-20T06:41:23.260Z,36.83
2018-02-20T06:43:51.143Z,39.28
2018-02-20T06:46:19.077Z,33.85
2018-02-20T06:48:46.960Z,34.97
2018-02-20T06:51:14.883Z,38.75
2018-02-20T06:53:43.018Z,33.17
2018-02-20T06:56:10.952Z,37.83
2018-02-20T06:58:38.836Z,35.35
2018-02-20T07:01:06.773Z,32.95
2018-02-20T07:03:34.657Z,36.28
2018-02-20T07:06:02.592Z,28.83
2018-02-20T07:08:30.474Z,34.28
2018-02-20T07:10:58.409Z,32.88
2018-02-20T07:13:26.292Z,35.33
2018-02-20T07:15:54.246Z,35.30
2018-02-20T07:18:22.121Z,36.40
2018-02-20T07:20:50.051Z,32.50
2018-02-20T07:23:20.145Z,31.77
2018-02-20T07:25:48.851Z,31.00
2018-02-20T07:28:16.748Z,35.80
2018-02-20T07:30:44.690Z,31.83
2018-02-20T07:33:12.568Z,30.80
2018-02-20T07:35:40.501Z,32.92
2018-02-20T07:38:08.395Z,32.17
2018-02-20T07:40:36.328Z,32.40
2018-02-20T07:43:04.221Z,38.85
2018-02-20T07:45:32.152Z,35.42
2018-02-20T07:48:00.038Z,29.40
2018-02-20T07:50:27.972Z,34.65
2018-02-20T07:52:56.066Z,34.28
2018-02-20T07:55:24.054Z,36.47
2018-02-20T07:57:51.933Z,38.67
2018-02-20T08:00:21.424Z,34.58
2018-02-20T08:02:49.304Z,39.92
2018-02-20T08:05:17.224Z,36.38
2018-02-20T08:07:45.087Z,35.08
2018-02-20T08:10:13.008Z,34.85
2018-02-20T08:12:40.883Z,35.60
2018-02-20T08:15:09.573Z,36.80
2018-02-20T08:17:37.450Z,36.15
2018-02-20T08:20:05.428Z,35.45
2018-02-20T08:22:33.539Z,40.58
2018-02-20T08:25:01.453Z,36.50
2018-02-20T08:27:29.326Z,35.03
2018-02-20T08:29:57.274Z,38.00
2018-02-20T08:32:25.155Z,37.07
2018-02-20T08:34:53.849Z,32.27
2018-02-20T08:37:22.532Z,34.70
2018-02-20T08:39:50.400Z,34.03
2018-02-20T08:42:19.122Z,34.43
2018-02-20T08:44:46.997Z,38.07
2018-02-20T08:47:14.925Z,34.00
2018-02-20T08:49:43.561Z,36.80
2018-02-20T08:52:12.155Z,32.07
2018-02-20T08:54:40.851Z,29.80
2018-02-20T08:57:09.141Z,32.13
2018-02-20T08:59:37.599Z,30.90
2018-02-20T09:02:05.536Z,29.67
2018-02-20T09:04:33.536Z,35.17
2018-02-20T09:07:01.465Z,35.87
2018-02-20T09:09:29.346Z,32.80
2018-02-20T09:11:57.276Z,35.97
2018-02-20T09:14:25.162Z,30.93
2018-02-20T09:16:53.089Z,31.10
2018-02-20T09:19:20.955Z,35.00
2018-02-20T09:21:50.864Z,29.80
2018-02-20T09:24:20.728Z,30.47
2018-02-20T09:26:49.981Z,29.50
2018-02-20T09:29:19.864Z,30.77
2018-02-20T09:31:47.784Z,30.23
2018-02-20T09:34:18.621Z,29.13
2018-02-20T09:36:48.715Z,28.60
2018-02-20T09:39:18.416Z,30.47
2018-02-20T09:41:48.907Z,30.27
2018-02-20T09:44:17.753Z,29.97
2018-02-20T09:46:47.959Z,34.60
2018-02-20T09:49:17.834Z,30.50
2018-02-20T09:51:47.457Z,32.33
2018-02-20T09:54:17.730Z,34.50
2018-02-20T09:56:45.871Z,33.60
2018-02-20T09:59:14.637Z,31.30
2018-02-20T10:01:44.628Z,31.70
2018-02-20T10:04:16.325Z,32.60
2018-02-20T10:06:44.249Z,32.20
2018-02-20T10:09:12.885Z,30.63
2018-02-20T10:11:40.861Z,30.57
2018-02-20T10:14:08.716Z,34.23
2018-02-20T10:16:37.411Z,30.23
2018-02-20T10:19:05.289Z,29.20
2018-02-20T10:21:33.222Z,27.43
2018-02-20T10:24:01.101Z,29.07
2018-02-20T10:26:29.809Z,31.73
2018-02-20T10:28:57.736Z,31.97
2018-02-20T10:31:25.683Z,35.10
2018-02-20T10:33:53.658Z,32.00
2018-02-20T10:36:21.583Z,29.80
2018-02-20T10:38:49.480Z,28.67
2018-02-20T10:41:17.464Z,27.43
2018-02-20T10:43:45.356Z,32.73
2018-02-20T10:46:13.296Z,30.17
2018-02-20T10:48:41.184Z,31.77
2018-02-20T10:51:09.134Z,29.47
2018-02-20T10:53:37.018Z,29.90
2018-02-20T10:56:04.995Z,32.43
2018-02-20T10:58:32.882Z,36.03
2018-02-20T11:01:01.578Z,30.97
2018-02-20T11:03:30.221Z,26.93
2018-02-20T11:05:58.149Z,31.70
2018-02-20T11:08:26.026Z,29.60
2018-02-20T11:10:53.952Z,30.63
2018-02-20T11:13:21.875Z,33.33
2018-02-20T11:15:49.837Z,32.80
2018-02-20T11:18:17.721Z,29.03
2018-02-20T11:20:45.650Z,30.57
2018-02-20T11:23:13.542Z,26.87
2018-02-20T11:25:42.281Z,28.93
2018-02-20T11:28:10.177Z,28.37
2018-02-20T11:30:38.126Z,28.40
2018-02-20T11:33:06.167Z,28.27
2018-02-20T11:35:34.051Z,27.43
2018-02-20T11:38:01.977Z,27.97
2018-02-20T11:40:29.860Z,27.53
2018-02-20T11:42:57.790Z,25.40
2018-02-20T11:45:25.674Z,28.53
2018-02-20T11:47:53.618Z,32.37
2018-02-20T11:50:22.264Z,31.43
2018-02-20T11:52:50.202Z,24.00
2018-02-20T11:55:18.087Z,24.83
2018-02-20T11:57:46.003Z,28.10
2018-02-20T12:00:14.426Z,32.10
2018-02-20T12:02:49.789Z,31.17
2018-02-20T12:05:17.667Z,29.00
2018-02-20T12:07:45.606Z,30.17
2018-02-20T12:10:13.505Z,27.60
2018-02-20T12:12:41.428Z,26.07
2018-02-20T12:15:09.313Z,23.90
2018-02-20T12:17:37.252Z,23.80
2018-02-20T12:20:05.128Z,29.07
2018-02-20T12:22:33.824Z,27.20
2018-02-20T12:25:01.713Z,28.13
2018-02-20T12:27:29.645Z,29.30
2018-02-20T12:29:58.278Z,25.60
2018-02-20T12:32:26.449Z,24.83
2018-02-20T12:34:54.344Z,28.40
2018-02-20T12:37:22.272Z,28.50
2018-02-20T12:39:50.147Z,22.20
2018-02-20T12:42:18.079Z,23.27
2018-02-20T12:44:46.902Z,27.50
2018-02-20T12:47:14.844Z,27.93
2018-02-20T12:49:43.489Z,25.17
2018-02-20T12:52:11.428Z,23.53
2018-02-20T12:54:39.307Z,22.20
2018-02-20T12:57:07.245Z,23.70
2018-02-20T12:59:35.111Z,21.27
2018-02-20T13:02:03.034Z,17.63
2018-02-20T13:04:30.963Z,21.10
2018-02-20T13:06:58.909Z,18.77
2018-02-20T13:09:26.855Z,17.00
2018-02-20T13:11:54.795Z,16.97
2018-02-20T13:14:22.664Z,19.40
2018-02-20T13:16:50.585Z,23.40
2018-02-20T13:19:18.472Z,22.60
2018-02-20T13:21:46.408Z,21.53
2018-02-20T13:24:14.717Z,21.43
2018-02-20T13:26:43.002Z,23.20
2018-02-20T13:29:10.897Z,24.00
2018-02-20T13:31:38.819Z,25.57
2018-02-20T13:34:06.773Z,24.40
2018-02-20T13:36:35.123Z,22.60
2018-02-20T13:39:03.108Z,23.93
2018-02-20T13:41:32.938Z,24.97
2018-02-20T13:44:00.808Z,25.17
2018-02-20T13:46:29.582Z,26.43
2018-02-20T13:48:57.466Z,24.80
2018-02-20T13:51:26.154Z,23.90
2018-02-20T13:53:57.984Z,23.90
2018-02-20T13:56:25.922Z,24.33
2018-02-20T13:58:53.814Z,24.40
2018-02-20T14:01:21.738Z,26.27
2018-02-20T14:03:49.626Z,23.67
2018-02-20T14:06:17.572Z,26.27
2018-02-20T14:08:45.472Z,23.93
2018-02-20T14:11:14.126Z,23.60
2018-02-20T14:13:42.060Z,26.17
2018-02-20T14:16:09.947Z,25.35
2018-02-20T14:18:37.894Z,22.87
2018-02-20T14:21:05.782Z,23.02
2018-02-20T14:23:40.076Z,21.33
2018-02-20T14:26:07.955Z,24.08
2018-02-20T14:28:35.896Z,26.83
2018-02-20T14:31:03.789Z,26.17
2018-02-20T14:33:31.709Z,26.67
2018-02-20T14:35:59.580Z,21.85
2018-02-20T14:38:27.509Z,22.08
2018-02-20T14:40:55.474Z,25.60
2018-02-20T14:43:23.415Z,26.23
2018-02-20T14:45:51.312Z,21.67
2018-02-20T14:48:19.245Z,23.62
2018-02-20T14:50:47.237Z,25.52
2018-02-20T14:53:16.352Z,24.40
2018-02-20T14:55:44.297Z,21.48
2018-02-20T14:58:12.229Z,17.17
2018-02-20T15:00:40.129Z,21.67
2018-02-20T15:03:09.008Z,23.05
2018-02-20T15:05:36.938Z,22.80
2018-02-20T15:08:04.941Z,18.70
2018-02-20T15:10:36.427Z,21.23
2018-02-20T15:13:04.669Z,19.08
2018-02-20T15:15:32.549Z,24.35
2018-02-20T15:18:01.684Z,18.10
2018-02-20T15:20:29.586Z,25.30
2018-02-20T15:22:57.517Z,18.83
2018-02-20T15:25:25.485Z,17.90
2018-02-20T15:27:53.359Z,19.58
2018-02-20T15:30:21.292Z,19.05
2018-02-20T15:32:49.169Z,16.10
2018-02-20T15:35:17.098Z,16.70
2018-02-20T15:37:44.968Z,16.27
2018-02-20T15:40:13.708Z,15.68
2018-02-20T15:42:41.586Z,13.80
2018-02-20T15:45:09.519Z,13.10
2018-02-20T15:47:37.390Z,14.40
2018-02-20T15:50:05.316Z,16.85
2018-02-20T15:52:37.360Z,14.27
2018-02-20T15:55:05.287Z,16.17
2018-02-20T15:57:33.167Z,16.05
2018-02-20T16:00:01.116Z,18.98
2018-02-20T16:02:29.004Z,17.00
2018-02-20T16:04:56.920Z,16.05
2018-02-20T16:07:24.803Z,15.18
2018-02-20T16:09:52.675Z,15.07
2018-02-20T16:12:21.369Z,16.62
2018-02-20T16:14:49.284Z,16.40
2018-02-20T16:17:17.273Z,17.15
2018-02-20T16:19:45.150Z,11.32
2018-02-20T16:22:13.100Z,15.80
2018-02-20T16:24:40.990Z,14.75
2018-02-20T16:27:08.924Z,18.90
2018-02-20T16:29:36.821Z,11.60
2018-02-20T16:32:04.740Z,12.25
2018-02-20T16:34:32.612Z,13.00
2018-02-20T16:37:00.543Z,15.52
2018-02-20T16:39:29.186Z,11.38
2018-02-20T16:41:57.117Z,16.67
2018-02-20T16:44:25.068Z,16.40
2018-02-20T16:46:53.766Z,17.10
2018-02-20T16:49:21.654Z,25.48
2018-02-20T16:51:49.532Z,31.42
2018-02-20T16:54:17.464Z,19.48
2018-02-20T16:56:46.107Z,23.05
2018-02-20T16:59:14.039Z,17.90
2018-02-20T17:01:41.927Z,21.52
2018-02-20T17:04:09.860Z,22.05
2018-02-20T17:06:37.761Z,27.65
2018-02-20T17:09:05.731Z,21.40
2018-02-20T17:11:33.614Z,23.92
2018-02-20T17:14:01.654Z,26.73
2018-02-20T17:16:29.533Z,34.38
2018-02-20T17:18:57.470Z,33.60
2018-02-20T17:21:26.222Z,26.48
2018-02-20T17:23:55.518Z,23.87
2018-02-20T17:26:23.421Z,24.27
2018-02-20T17:28:51.340Z,24.60
2018-02-20T17:31:19.229Z,28.38
2018-02-20T17:33:47.148Z,21.27
2018-02-20T17:36:15.036Z,23.33
2018-02-20T17:38:47.665Z,25.95
2018-02-20T17:41:15.821Z,26.45
2018-02-20T17:43:48.814Z,21.58
2018-02-20T17:46:16.700Z,26.45
2018-02-20T17:48:44.648Z,38.17
2018-02-20T17:51:12.620Z,48.08
2018-02-20T17:53:40.593Z,41.20
2018-02-20T17:56:08.637Z,40.88
2018-02-20T17:58:36.619Z,34.88
2018-02-20T18:01:04.580Z,31.60
2018-02-20T18:03:32.704Z,30.35
2018-02-20T18:06:01.360Z,34.33
2018-02-20T18:08:29.289Z,33.80
2018-02-20T18:10:57.161Z,30.37
2018-02-20T18:13:25.271Z,35.60
2018-02-20T18:15:53.204Z,37.35
2018-02-20T18:18:21.128Z,35.67
2018-02-20T18:20:49.014Z,30.58
2018-02-20T18:23:16.952Z,27.62
2018-02-20T18:25:44.835Z,30.40
2018-02-20T18:28:12.783Z,29.17
2018-02-20T18:30:40.660Z,27.35
2018-02-20T18:33:08.574Z,29.33
2018-02-20T18:35:36.463Z,26.70
2018-02-20T18:38:04.384Z,31.40
2018-02-20T18:40:32.696Z,34.35
2018-02-20T18:43:05.208Z,33.75
2018-02-20T18:45:33.105Z,27.62
2018-02-20T18:48:01.063Z,29.15
2018-02-20T18:50:29.064Z,34.53
2018-02-20T18:52:57.763Z,26.30
2018-02-20T18:55:25.659Z,30.90
2018-02-20T18:57:53.586Z,30.58
2018-02-20T19:00:22.254Z,29.95
2018-02-20T19:02:50.205Z,29.75
2018-02-20T19:05:18.091Z,27.15
2018-02-20T19:07:45.971Z,28.40
2018-02-20T19:10:13.911Z,27.52
2018-02-20T19:12:42.009Z,28.85
2018-02-20T19:15:09.977Z,32.35
2018-02-20T19:17:37.873Z,26.75
2018-02-20T19:20:06.416Z,28.98
2018-02-20T19:22:34.291Z,26.75
2018-02-20T19:25:02.226Z,26.42
2018-02-20T19:27:30.131Z,27.77
2018-02-20T19:29:58.106Z,31.48
2018-02-20T19:32:26.764Z,26.62
2018-02-20T19:34:55.463Z,26.87
2018-02-20T19:39:53.389Z,34.50
2018-02-20T19:42:21.344Z,28.52
2018-02-20T19:44:50.071Z,32.10
2018-02-20T19:47:18.429Z,27.10
2018-02-20T19:49:46.508Z,30.15
2018-02-20T19:52:14.420Z,30.50
2018-02-20T19:54:42.433Z,32.05
2018-02-20T19:57:10.353Z,32.65
2018-02-20T19:59:38.403Z,31.33
2018-02-20T20:02:06.336Z,29.90
2018-02-20T20:04:34.372Z,29.90
2018-02-20T20:07:03.045Z,27.02
2018-02-20T20:09:31.005Z,32.55
2018-02-20T20:11:58.996Z,33.78
2018-02-20T20:14:26.984Z,29.25
2018-02-20T20:16:54.902Z,32.90
2018-02-20T20:19:22.892Z,30.70
2018-02-20T20:21:50.835Z,32.17
2018-02-20T20:24:18.864Z,31.92
2018-02-20T20:26:46.804Z,27.52
2018-02-20T20:29:14.791Z,30.77
2018-02-20T20:31:42.716Z,29.45
2018-02-20T20:34:14.633Z,30.98
2018-02-20T20:36:42.561Z,27.73
2018-02-20T20:39:10.533Z,29.40
2018-02-20T20:41:38.448Z,34.47
2018-02-20T20:44:06.409Z,31.20
2018-02-20T20:46:35.103Z,30.20
2018-02-20T20:49:03.103Z,30.92
2018-02-20T20:51:31.786Z,30.48
2018-02-20T20:53:59.769Z,30.98
2018-02-20T20:56:27.672Z,29.92
2018-02-20T20:58:55.636Z,32.85
2018-02-20T21:01:23.529Z,30.10
2018-02-20T21:03:52.769Z,34.85
2018-02-20T21:06:20.684Z,34.30
2018-02-20T21:08:50.781Z,33.40
2018-02-20T21:11:18.786Z,34.30
2018-02-20T21:13:46.760Z,38.40
2018-02-20T21:16:14.665Z,34.70
2018-02-20T21:18:42.606Z,35.10
2018-02-20T21:21:10.526Z,33.25
2018-02-20T21:23:38.512Z,31.02
2018-02-20T21:26:08.385Z,37.30
2018-02-20T21:28:41.714Z,29.50
2018-02-20T21:31:09.835Z,31.83
2018-02-20T21:33:37.803Z,33.70
2018-02-20T21:36:05.709Z,30.25
2018-02-20T21:38:33.653Z,29.65
2018-02-20T21:41:01.776Z,39.85
2018-02-20T21:43:30.338Z,31.42
2018-02-20T21:45:58.245Z,33.92
2018-02-20T21:48:26.186Z,31.40
2018-02-20T21:50:54.139Z,33.53
2018-02-20T21:53:22.091Z,32.03
2018-02-20T21:55:50.907Z,32.45
2018-02-20T21:58:18.857Z,36.30
2018-02-20T22:00:47.598Z,37.28
2018-02-20T22:03:15.503Z,37.55
2018-02-20T22:05:44.702Z,44.67
2018-02-20T22:08:12.607Z,40.47
2018-02-20T22:10:40.569Z,42.25
2018-02-20T22:13:08.468Z,40.22
2018-02-20T22:15:36.469Z,33.78
2018-02-20T22:18:04.417Z,39.10
2018-02-20T22:20:32.391Z,46.28
2018-02-20T22:23:01.453Z,62.03
2018-02-20T22:25:29.401Z,61.15
2018-02-20T22:27:57.328Z,63.70
2018-02-20T22:30:25.294Z,65.07
2018-02-20T22:32:53.202Z,53.50
2018-02-20T22:35:21.158Z,44.97
2018-02-20T22:37:49.188Z,42.28
2018-02-20T22:40:17.131Z,46.50
2018-02-20T22:42:45.019Z,42.95
2018-02-20T22:45:13.019Z,40.85
2018-02-20T22:47:40.929Z,50.28
2018-02-20T22:50:09.663Z,46.25
2018-02-20T22:52:37.709Z,46.20
2018-02-20T22:55:09.057Z,48.67
2018-02-20T22:57:42.400Z,45.15
2018-02-20T23:00:13.814Z,42.72
2018-02-20T23:02:44.541Z,43.42
2018-02-20T23:05:16.439Z,43.78
2018-02-20T23:07:48.058Z,44.17
2018-02-20T23:10:19.905Z,43.95
2018-02-20T23:12:50.878Z,41.28
2018-02-20T23:15:22.321Z,43.83
2018-02-20T23:17:53.384Z,45.22
2018-02-20T23:20:26.408Z,48.80
2018-02-20T23:22:57.755Z,46.42
2018-02-20T23:25:30.833Z,46.53
2018-02-20T23:28:01.648Z,47.75
2018-02-20T23:30:33.389Z,49.40
2018-02-20T23:33:06.011Z,49.75
2018-02-20T23:35:37.124Z,50.15
2018-02-20T23:38:07.927Z,45.90
2018-02-20T23:40:39.744Z,57.65
2018-02-20T23:43:12.533Z,57.47
2018-02-20T23:45:45.237Z,48.50
2018-02-20T23:48:17.476Z,49.85
2018-02-20T23:50:49.255Z,55.75
2018-02-20T23:53:25.864Z,50.85
2018-02-20T23:55:57.286Z,47.17
2018-02-20T23:58:27.577Z,53.70
